createdAt,value
2018-06-03T00:00:15.681Z,936.59
2018-06-03T00:01:15.700Z,936.57
2018-06-03T00:02:15.667Z,936.60
2018-06-03T00:03:15.661Z,936.59
2018-06-03T00:04:15.656Z,936.58
2018-06-03T00:05:15.673Z,936.62
2018-06-03T00:06:15.643Z,936.64
2018-06-03T00:07:15.638Z,936.66
2018-06-03T00:08:15.655Z,936.70
2018-06-03T00:09:15.641Z,936.68
2018-06-03T00:10:15.614Z,936.63
2018-06-03T00:11:15.608Z,936.65
2018-06-03T00:12:15.601Z,936.63
2018-06-03T00:13:15.596Z,936.58
2018-06-03T00:14:15.593Z,936.57
2018-06-03T00:15:15.581Z,936.55
2018-06-03T00:16:15.574Z,936.61
2018-06-03T00:17:15.569Z,936.58
2018-06-03T00:18:15.560Z,936.61
2018-06-03T00:19:15.554Z,936.63
2018-06-03T00:20:15.548Z,936.61
2018-06-03T00:21:15.541Z,936.60
2018-06-03T00:22:15.535Z,936.58
2018-06-03T00:23:15.528Z,936.57
2018-06-03T00:24:15.521Z,936.58
2018-06-03T00:25:15.516Z,936.61
2018-06-03T00:26:15.546Z,936.61
2018-06-03T00:27:15.500Z,936.64
2018-06-03T00:28:15.494Z,936.57
2018-06-03T00:29:15.491Z,936.58
2018-06-03T00:30:15.481Z,936.58
2018-06-03T00:31:15.474Z,936.56
2018-06-03T00:32:15.468Z,936.65
2018-06-03T00:33:15.461Z,936.64
2018-06-03T00:34:15.454Z,936.71
2018-06-03T00:35:15.448Z,936.74
2018-06-03T00:36:15.441Z,936.79
2018-06-03T00:37:15.437Z,936.79
2018-06-03T00:38:15.428Z,936.86
2018-06-03T00:39:15.422Z,936.88
2018-06-03T00:40:15.414Z,936.90
2018-06-03T00:41:15.407Z,936.91
2018-06-03T00:42:15.399Z,936.92
2018-06-03T00:43:15.393Z,936.90
2018-06-03T00:44:15.387Z,936.95
2018-06-03T00:45:15.380Z,936.95
2018-06-03T00:46:15.574Z,936.97
2018-06-03T00:47:15.365Z,936.96
2018-06-03T00:48:15.359Z,936.93
2018-06-03T00:49:15.357Z,936.95
2018-06-03T00:50:15.379Z,936.94
2018-06-03T00:51:15.339Z,936.98
2018-06-03T00:52:15.333Z,936.98
2018-06-03T00:53:15.352Z,936.98
2018-06-03T00:54:15.318Z,937.05
2018-06-03T00:55:15.312Z,937.01
2018-06-03T00:56:15.306Z,936.98
2018-06-03T00:57:15.299Z,936.99
2018-06-03T00:58:15.295Z,937.03
2018-06-03T00:59:15.284Z,937.04
2018-06-03T01:00:15.279Z,937.03
2018-06-03T01:01:15.273Z,937.01
2018-06-03T01:02:15.264Z,937.03
2018-06-03T01:03:15.257Z,937.00
2018-06-03T01:04:15.251Z,937.01
2018-06-03T01:05:15.244Z,937.01
2018-06-03T01:06:15.237Z,937.02
2018-06-03T01:07:15.230Z,937.05
2018-06-03T01:08:15.224Z,937.07
2018-06-03T01:09:15.250Z,937.05
2018-06-03T01:10:15.209Z,937.06
2018-06-03T01:11:15.203Z,937.06
2018-06-03T01:12:15.197Z,937.07
2018-06-03T01:13:15.189Z,937.10
2018-06-03T01:14:15.185Z,937.05
2018-06-03T01:15:15.175Z,937.08
2018-06-03T01:16:15.168Z,937.06
2018-06-03T01:17:15.165Z,937.11
2018-06-03T01:18:15.154Z,937.11
2018-06-03T01:19:15.147Z,937.12
2018-06-03T01:20:15.145Z,937.13
2018-06-03T01:21:15.136Z,937.12
2018-06-03T01:22:15.128Z,937.13
2018-06-03T01:23:15.119Z,937.15
2018-06-03T01:24:15.113Z,937.13
2018-06-03T01:25:15.107Z,937.17
2018-06-03T01:26:15.098Z,937.21
2018-06-03T01:27:15.096Z,937.25
2018-06-03T01:28:15.085Z,937.24
2018-06-03T01:29:15.076Z,937.20
2018-06-03T01:30:15.070Z,937.16
2018-06-03T01:31:15.063Z,937.17
2018-06-03T01:32:15.054Z,937.19
2018-06-03T01:33:15.049Z,937.20
2018-06-03T01:34:15.041Z,937.28
2018-06-03T01:35:15.034Z,937.29
2018-06-03T01:36:15.027Z,937.29
2018-06-03T01:37:15.020Z,937.29
2018-06-03T01:38:15.011Z,937.28
2018-06-03T01:39:15.005Z,937.30
2018-06-03T01:40:14.997Z,937.29
2018-06-03T01:41:14.993Z,937.27
2018-06-03T01:42:14.982Z,937.29
2018-06-03T01:43:14.977Z,937.27
2018-06-03T01:44:14.969Z,937.23
2018-06-03T01:45:14.962Z,937.29
2018-06-03T01:46:15.153Z,937.31
2018-06-03T01:47:14.946Z,937.29
2018-06-03T01:48:14.939Z,937.30
2018-06-03T01:49:14.932Z,937.30
2018-06-03T01:50:14.924Z,937.33
2018-06-03T01:51:14.918Z,937.28
2018-06-03T01:52:14.909Z,937.27
2018-06-03T01:53:14.901Z,937.29
2018-06-03T01:54:14.894Z,937.31
2018-06-03T01:55:14.887Z,937.33
2018-06-03T01:56:14.879Z,937.33
2018-06-03T01:57:14.872Z,937.32
2018-06-03T01:58:14.864Z,937.30
2018-06-03T01:59:14.860Z,937.36
2018-06-03T02:00:14.849Z,937.35
2018-06-03T02:01:14.843Z,937.40
2018-06-03T02:02:14.834Z,937.40
2018-06-03T02:03:14.826Z,937.42
2018-06-03T02:04:14.819Z,937.39
2018-06-03T02:05:14.811Z,937.38
2018-06-03T02:06:14.807Z,937.35
2018-06-03T02:07:14.795Z,937.36
2018-06-03T02:08:14.788Z,937.33
2018-06-03T02:09:14.780Z,937.32
2018-06-03T02:10:14.772Z,937.30
2018-06-03T02:11:14.764Z,937.30
2018-06-03T02:12:14.757Z,937.23
2018-06-03T02:13:14.748Z,937.24
2018-06-03T02:14:14.740Z,937.22
2018-06-03T02:15:14.732Z,937.25
2018-06-03T02:16:14.725Z,937.28
2018-06-03T02:17:14.716Z,937.31
2018-06-03T02:18:14.707Z,937.33
2018-06-03T02:19:14.701Z,937.31
2018-06-03T02:20:14.693Z,937.29
2018-06-03T02:21:14.685Z,937.29
2018-06-03T02:22:14.692Z,937.32
2018-06-03T02:23:14.670Z,937.35
2018-06-03T02:24:14.661Z,937.31
2018-06-03T02:25:14.653Z,937.29
2018-06-03T02:26:14.644Z,937.27
2018-06-03T02:27:14.637Z,937.30
2018-06-03T02:28:14.631Z,937.30
2018-06-03T02:29:14.623Z,937.34
2018-06-03T02:30:14.615Z,937.37
2018-06-03T02:31:14.607Z,937.38
2018-06-03T02:32:14.599Z,937.33
2018-06-03T02:33:14.592Z,937.35
2018-06-03T02:34:14.582Z,937.34
2018-06-03T02:35:14.575Z,937.31
2018-06-03T02:36:14.568Z,937.25
2018-06-03T02:37:14.562Z,937.26
2018-06-03T02:38:14.556Z,937.31
2018-06-03T02:39:14.542Z,937.27
2018-06-03T02:40:14.539Z,937.26
2018-06-03T02:41:14.528Z,937.24
2018-06-03T02:42:14.519Z,937.23
2018-06-03T02:43:14.511Z,937.22
2018-06-03T02:44:14.503Z,937.25
2018-06-03T02:45:14.496Z,937.32
2018-06-03T02:46:14.487Z,937.32
2018-06-03T02:47:14.480Z,937.41
2018-06-03T02:48:14.475Z,937.41
2018-06-03T02:49:14.465Z,937.40
2018-06-03T02:50:14.456Z,937.42
2018-06-03T02:51:14.448Z,937.40
2018-06-03T02:52:14.440Z,937.35
2018-06-03T02:53:14.432Z,937.40
2018-06-03T02:54:14.423Z,937.35
2018-06-03T02:55:14.424Z,937.38
2018-06-03T02:56:14.406Z,937.42
2018-06-03T02:57:14.398Z,937.43
2018-06-03T02:58:14.391Z,937.41
2018-06-03T02:59:14.383Z,937.41
2018-06-03T03:00:14.380Z,937.43
2018-06-03T03:01:14.368Z,937.43
2018-06-03T03:02:14.359Z,937.43
2018-06-03T03:03:14.351Z,937.42
2018-06-03T03:04:14.343Z,937.37
2018-06-03T03:05:14.336Z,937.33
2018-06-03T03:06:14.326Z,937.37
2018-06-03T03:07:14.318Z,937.32
2018-06-03T03:08:14.310Z,937.30
2018-06-03T03:09:14.302Z,937.33
2018-06-03T03:10:14.294Z,937.33
2018-06-03T03:11:14.285Z,937.32
2018-06-03T03:12:14.278Z,937.32
2018-06-03T03:13:14.270Z,937.32
2018-06-03T03:14:14.265Z,937.29
2018-06-03T03:15:14.254Z,937.29
2018-06-03T03:16:14.246Z,937.34
2018-06-03T03:17:14.237Z,937.36
2018-06-03T03:18:14.227Z,937.41
2018-06-03T03:19:14.222Z,937.43
2018-06-03T03:20:14.224Z,937.42
2018-06-03T03:21:14.204Z,937.43
2018-06-03T03:22:14.196Z,937.41
2018-06-03T03:23:14.188Z,937.37
2018-06-03T03:24:14.184Z,937.38
2018-06-03T03:25:14.174Z,937.42
2018-06-03T03:26:14.165Z,937.41
2018-06-03T03:27:14.156Z,937.47
2018-06-03T03:28:14.149Z,937.49
2018-06-03T03:29:14.141Z,937.51
2018-06-03T03:30:14.133Z,937.48
2018-06-03T03:31:14.125Z,937.47
2018-06-03T03:32:14.117Z,937.49
2018-06-03T03:33:14.108Z,937.52
2018-06-03T03:34:14.101Z,937.54
2018-06-03T03:35:14.094Z,937.53
2018-06-03T03:36:14.085Z,937.53
2018-06-03T03:37:14.082Z,937.51
2018-06-03T03:38:14.072Z,937.51
2018-06-03T03:39:14.061Z,937.48
2018-06-03T03:40:14.052Z,937.49
2018-06-03T03:41:14.044Z,937.52
2018-06-03T03:42:14.036Z,937.55
2018-06-03T03:43:14.029Z,937.60
2018-06-03T03:44:14.020Z,937.65
2018-06-03T03:45:14.015Z,937.65
2018-06-03T03:46:14.203Z,937.70
2018-06-03T03:47:13.996Z,937.72
2018-06-03T03:48:13.988Z,937.70
2018-06-03T03:49:13.980Z,937.72
2018-06-03T03:50:13.972Z,937.73
2018-06-03T03:51:13.963Z,937.75
2018-06-03T03:52:13.955Z,937.78
2018-06-03T03:53:13.948Z,937.80
2018-06-03T03:54:13.939Z,937.80
2018-06-03T03:55:13.931Z,937.79
2018-06-03T03:56:13.923Z,937.82
2018-06-03T03:57:13.915Z,937.84
2018-06-03T03:58:13.905Z,937.83
2018-06-03T03:59:13.900Z,937.83
2018-06-03T04:00:13.892Z,937.81
2018-06-03T04:01:13.883Z,937.82
2018-06-03T04:02:13.874Z,937.83
2018-06-03T04:03:13.866Z,937.86
2018-06-03T04:04:13.858Z,937.89
2018-06-03T04:05:13.849Z,937.91
2018-06-03T04:06:13.840Z,937.93
2018-06-03T04:07:13.834Z,937.93
2018-06-03T04:08:13.829Z,937.94
2018-06-03T04:09:13.817Z,937.96
2018-06-03T04:10:13.810Z,937.92
2018-06-03T04:11:13.800Z,937.91
2018-06-03T04:12:13.792Z,937.99
2018-06-03T04:13:13.788Z,937.95
2018-06-03T04:14:13.775Z,937.95
2018-06-03T04:15:13.769Z,937.94
2018-06-03T04:16:13.759Z,937.91
2018-06-03T04:17:13.752Z,937.91
2018-06-03T04:18:13.742Z,937.87
2018-06-03T04:19:13.734Z,937.91
2018-06-03T04:20:13.726Z,937.95
2018-06-03T04:21:13.719Z,937.99
2018-06-03T04:22:13.708Z,938.04
2018-06-03T04:23:13.702Z,938.07
2018-06-03T04:24:13.693Z,938.12
2018-06-03T04:25:13.684Z,938.08
2018-06-03T04:26:13.675Z,938.08
2018-06-03T04:27:13.667Z,938.05
2018-06-03T04:28:13.659Z,938.06
2018-06-03T04:29:13.649Z,938.05
2018-06-03T04:30:13.641Z,937.99
2018-06-03T04:31:13.633Z,938.01
2018-06-03T04:32:13.625Z,938.02
2018-06-03T04:33:13.616Z,938.00
2018-06-03T04:34:13.609Z,937.98
2018-06-03T04:35:13.602Z,938.03
2018-06-03T04:36:13.590Z,938.05
2018-06-03T04:37:13.582Z,938.04
2018-06-03T04:38:13.571Z,938.10
2018-06-03T04:39:13.565Z,938.17
2018-06-03T04:40:13.562Z,938.15
2018-06-03T04:41:13.550Z,938.16
2018-06-03T04:42:13.541Z,938.13
2018-06-03T04:43:13.567Z,938.15
2018-06-03T04:44:13.522Z,938.08
2018-06-03T04:45:13.514Z,938.10
2018-06-03T04:46:13.504Z,938.06
2018-06-03T04:47:13.496Z,938.11
2018-06-03T04:48:13.487Z,938.15
2018-06-03T04:49:13.479Z,938.23
2018-06-03T04:50:13.470Z,938.23
2018-06-03T04:51:13.461Z,938.28
2018-06-03T04:52:13.453Z,938.29
2018-06-03T04:53:13.448Z,938.23
2018-06-03T04:54:13.435Z,938.19
2018-06-03T04:55:13.430Z,938.17
2018-06-03T04:56:13.418Z,938.16
2018-06-03T04:57:13.410Z,938.14
2018-06-03T04:58:13.401Z,938.15
2018-06-03T04:59:13.392Z,938.10
2018-06-03T05:00:13.384Z,938.06
2018-06-03T05:01:13.375Z,938.02
2018-06-03T05:02:13.365Z,937.99
2018-06-03T05:03:13.356Z,937.99
2018-06-03T05:04:13.348Z,938.00
2018-06-03T05:05:13.339Z,938.01
2018-06-03T05:06:13.327Z,938.00
2018-06-03T05:07:13.320Z,937.98
2018-06-03T05:08:13.312Z,937.99
2018-06-03T05:09:13.303Z,937.98
2018-06-03T05:10:13.293Z,937.96
2018-06-03T05:11:13.285Z,937.96
2018-06-03T05:12:13.276Z,937.95
2018-06-03T05:13:13.267Z,937.99
2018-06-03T05:14:13.257Z,937.95
2018-06-03T05:15:13.248Z,937.94
2018-06-03T05:16:13.241Z,937.96
2018-06-03T05:17:13.232Z,937.97
2018-06-03T05:18:13.222Z,937.93
2018-06-03T05:19:13.214Z,937.87
2018-06-03T05:20:13.205Z,937.89
2018-06-03T05:21:13.200Z,937.87
2018-06-03T05:22:13.187Z,937.85
2018-06-03T05:23:13.178Z,937.86
2018-06-03T05:24:13.171Z,937.89
2018-06-03T05:25:13.161Z,937.87
2018-06-03T05:26:13.152Z,937.91
2018-06-03T05:27:13.144Z,937.88
2018-06-03T05:28:13.136Z,937.89
2018-06-03T05:29:13.127Z,937.88
2018-06-03T05:30:13.118Z,937.88
2018-06-03T05:31:13.108Z,937.90
2018-06-03T05:32:13.101Z,937.88
2018-06-03T05:33:13.096Z,937.91
2018-06-03T05:34:13.083Z,937.89
2018-06-03T05:35:13.075Z,937.91
2018-06-03T05:36:13.068Z,937.92
2018-06-03T05:37:13.057Z,937.92
2018-06-03T05:38:13.051Z,937.92
2018-06-03T05:39:13.040Z,937.94
2018-06-03T05:40:13.035Z,937.98
2018-06-03T05:41:13.024Z,937.99
2018-06-03T05:42:13.013Z,938.02
2018-06-03T05:43:13.006Z,938.06
2018-06-03T05:44:13.001Z,938.07
2018-06-03T05:45:12.989Z,938.14
2018-06-03T05:46:13.180Z,938.13
2018-06-03T05:47:12.970Z,938.14
2018-06-03T05:48:12.963Z,938.19
2018-06-03T05:49:12.955Z,938.09
2018-06-03T05:50:12.946Z,938.04
2018-06-03T05:51:12.940Z,938.03
2018-06-03T05:52:13.129Z,938.00
2018-06-03T05:53:12.920Z,938.00
2018-06-03T05:54:12.911Z,937.94
2018-06-03T05:55:12.903Z,937.94
2018-06-03T05:56:12.895Z,937.92
2018-06-03T05:57:12.886Z,937.96
2018-06-03T05:58:12.877Z,937.92
2018-06-03T05:59:12.867Z,937.97
2018-06-03T06:00:12.858Z,937.96
2018-06-03T06:01:12.852Z,937.94
2018-06-03T06:02:12.842Z,937.91
2018-06-03T06:03:12.833Z,937.92
2018-06-03T06:04:13.025Z,937.94
2018-06-03T06:05:12.815Z,937.99
2018-06-03T06:06:12.808Z,938.00
2018-06-03T06:07:12.799Z,938.04
2018-06-03T06:08:12.791Z,937.99
2018-06-03T06:09:12.782Z,938.03
2018-06-03T06:10:12.773Z,938.04
2018-06-03T06:11:12.764Z,938.06
2018-06-03T06:12:12.755Z,938.08
2018-06-03T06:13:12.749Z,938.10
2018-06-03T06:14:12.738Z,938.07
2018-06-03T06:15:12.730Z,938.08
2018-06-03T06:16:12.923Z,938.06
2018-06-03T06:17:12.713Z,938.03
2018-06-03T06:18:12.704Z,938.03
2018-06-03T06:19:12.695Z,938.08
2018-06-03T06:20:12.695Z,938.06
2018-06-03T06:21:12.679Z,938.04
2018-06-03T06:22:12.668Z,938.00
2018-06-03T06:23:12.659Z,938.00
2018-06-03T06:24:12.655Z,938.01
2018-06-03T06:25:12.643Z,938.00
2018-06-03T06:26:12.633Z,938.01
2018-06-03T06:27:12.625Z,938.07
2018-06-03T06:28:12.616Z,938.05
2018-06-03T06:29:12.606Z,938.06
2018-06-03T06:30:12.597Z,938.02
2018-06-03T06:31:12.586Z,938.00
2018-06-03T06:32:12.578Z,937.95
2018-06-03T06:33:12.568Z,937.94
2018-06-03T06:34:12.560Z,937.92
2018-06-03T06:35:12.551Z,937.93
2018-06-03T06:36:12.543Z,937.96
2018-06-03T06:37:12.535Z,937.99
2018-06-03T06:38:12.525Z,937.98
2018-06-03T06:39:12.520Z,938.01
2018-06-03T06:40:12.513Z,938.02
2018-06-03T06:41:12.500Z,937.99
2018-06-03T06:42:12.490Z,938.00
2018-06-03T06:43:12.482Z,938.03
2018-06-03T06:44:12.473Z,938.04
2018-06-03T06:45:12.464Z,938.05
2018-06-03T06:46:12.456Z,938.05
2018-06-03T06:47:12.448Z,938.02
2018-06-03T06:48:12.439Z,938.03
2018-06-03T06:49:12.431Z,938.01
2018-06-03T06:50:12.422Z,938.03
2018-06-03T06:51:12.413Z,938.05
2018-06-03T06:52:12.613Z,938.06
2018-06-03T06:53:12.397Z,938.05
2018-06-03T06:54:12.390Z,938.05
2018-06-03T06:55:12.382Z,938.06
2018-06-03T06:56:12.370Z,938.06
2018-06-03T06:57:12.363Z,938.07
2018-06-03T06:58:12.353Z,938.06
2018-06-03T06:59:12.343Z,938.11
2018-06-03T07:00:12.388Z,938.13
2018-06-03T07:01:12.327Z,938.11
2018-06-03T07:02:12.321Z,938.14
2018-06-03T07:03:12.310Z,938.16
2018-06-03T07:04:12.304Z,938.15
2018-06-03T07:05:12.295Z,938.07
2018-06-03T07:06:12.286Z,938.08
2018-06-03T07:07:12.278Z,938.16
2018-06-03T07:08:12.270Z,938.19
2018-06-03T07:09:12.260Z,938.22
2018-06-03T07:10:12.252Z,938.32
2018-06-03T07:11:12.243Z,938.35
2018-06-03T07:12:12.237Z,938.32
2018-06-03T07:13:12.270Z,938.32
2018-06-03T07:14:12.218Z,938.32
2018-06-03T07:15:12.210Z,938.27
2018-06-03T07:16:12.201Z,938.28
2018-06-03T07:17:12.191Z,938.24
2018-06-03T07:18:12.184Z,938.28
2018-06-03T07:19:12.175Z,938.21
2018-06-03T07:20:12.167Z,938.23
2018-06-03T07:21:12.159Z,938.23
2018-06-03T07:22:12.148Z,938.23
2018-06-03T07:23:12.190Z,938.27
2018-06-03T07:24:12.137Z,938.24
2018-06-03T07:25:12.129Z,938.25
2018-06-03T07:26:12.115Z,938.23
2018-06-03T07:27:12.106Z,938.21
2018-06-03T07:28:12.297Z,938.22
2018-06-03T07:29:12.090Z,938.21
2018-06-03T07:30:12.080Z,938.19
2018-06-03T07:31:12.072Z,938.23
2018-06-03T07:32:12.064Z,938.23
2018-06-03T07:33:12.061Z,938.24
2018-06-03T07:34:12.045Z,938.21
2018-06-03T07:35:12.037Z,938.23
2018-06-03T07:36:12.029Z,938.25
2018-06-03T07:37:12.020Z,938.26
2018-06-03T07:38:12.037Z,938.26
2018-06-03T07:39:12.002Z,938.35
2018-06-03T07:40:11.994Z,938.29
2018-06-03T07:41:11.986Z,938.31
2018-06-03T07:42:11.975Z,938.31
2018-06-03T07:43:11.968Z,938.34
2018-06-03T07:44:11.959Z,938.33
2018-06-03T07:45:11.959Z,938.34
2018-06-03T07:46:11.943Z,938.33
2018-06-03T07:47:11.933Z,938.35
2018-06-03T07:48:11.925Z,938.39
2018-06-03T07:49:11.915Z,938.38
2018-06-03T07:50:11.907Z,938.42
2018-06-03T07:51:11.898Z,938.42
2018-06-03T07:52:11.890Z,938.39
2018-06-03T07:53:11.885Z,938.40
2018-06-03T07:54:11.870Z,938.39
2018-06-03T07:55:11.864Z,938.40
2018-06-03T07:56:11.852Z,938.44
2018-06-03T07:57:11.843Z,938.44
2018-06-03T07:58:12.033Z,938.43
2018-06-03T07:59:11.825Z,938.44
2018-06-03T08:00:11.814Z,938.45
2018-06-03T08:01:11.805Z,938.39
2018-06-03T08:02:11.795Z,938.41
2018-06-03T08:03:11.787Z,938.46
2018-06-03T08:04:11.778Z,938.44
2018-06-03T08:05:11.776Z,938.49
2018-06-03T08:06:11.763Z,938.54
2018-06-03T08:07:11.751Z,938.56
2018-06-03T08:08:11.746Z,938.55
2018-06-03T08:09:11.734Z,938.56
2018-06-03T08:10:11.723Z,938.54
2018-06-03T08:11:11.715Z,938.59
2018-06-03T08:12:11.706Z,938.55
2018-06-03T08:13:11.698Z,938.58
2018-06-03T08:14:11.688Z,938.59
2018-06-03T08:15:11.679Z,938.60
2018-06-03T08:16:11.875Z,938.65
2018-06-03T08:17:11.660Z,938.74
2018-06-03T08:18:11.652Z,938.75
2018-06-03T08:19:11.643Z,938.83
2018-06-03T08:20:11.635Z,938.82
2018-06-03T08:21:11.636Z,938.84
2018-06-03T08:22:11.821Z,938.77
2018-06-03T08:23:11.605Z,938.80
2018-06-03T08:24:11.601Z,938.83
2018-06-03T08:25:11.589Z,938.81
2018-06-03T08:26:11.580Z,938.81
2018-06-03T08:27:11.569Z,938.82
2018-06-03T08:28:11.561Z,938.83
2018-06-03T08:29:11.551Z,938.89
2018-06-03T08:30:11.542Z,938.95
2018-06-03T08:31:11.532Z,939.02
2018-06-03T08:32:11.526Z,938.99
2018-06-03T08:33:11.513Z,939.07
2018-06-03T08:34:11.504Z,939.10
2018-06-03T08:35:11.496Z,939.06
2018-06-03T08:36:11.486Z,939.12
2018-06-03T08:37:11.478Z,939.07
2018-06-03T08:38:11.466Z,939.09
2018-06-03T08:39:11.508Z,939.02
2018-06-03T08:40:11.450Z,939.01
2018-06-03T08:41:11.441Z,939.03
2018-06-03T08:42:11.430Z,939.02
2018-06-03T08:43:11.424Z,939.04
2018-06-03T08:44:11.413Z,939.03
2018-06-03T08:45:11.404Z,939.08
2018-06-03T08:46:11.393Z,939.10
2018-06-03T08:47:11.385Z,939.08
2018-06-03T08:48:11.375Z,939.03
2018-06-03T08:49:11.370Z,938.98
2018-06-03T08:50:11.358Z,939.00
2018-06-03T08:51:11.348Z,939.04
2018-06-03T08:52:11.594Z,939.09
2018-06-03T08:53:11.330Z,939.13
2018-06-03T08:54:11.320Z,939.19
2018-06-03T08:55:11.311Z,939.14
2018-06-03T08:56:11.302Z,939.14
2018-06-03T08:57:11.296Z,939.08
2018-06-03T08:58:11.282Z,939.06
2018-06-03T08:59:11.271Z,939.03
2018-06-03T09:00:11.263Z,939.03
2018-06-03T09:01:11.254Z,939.08
2018-06-03T09:02:11.245Z,939.07
2018-06-03T09:03:11.235Z,939.07
2018-06-03T09:04:11.225Z,939.08
2018-06-03T09:05:11.215Z,939.10
2018-06-03T09:06:11.205Z,939.21
2018-06-03T09:07:11.195Z,939.25
2018-06-03T09:08:11.186Z,939.22
2018-06-03T09:09:11.177Z,939.23
2018-06-03T09:10:11.166Z,939.26
2018-06-03T09:11:11.157Z,939.27
2018-06-03T09:12:11.147Z,939.28
2018-06-03T09:13:11.153Z,939.33
2018-06-03T09:14:11.125Z,939.37
2018-06-03T09:15:11.117Z,939.34
2018-06-03T09:16:11.308Z,939.34
2018-06-03T09:17:11.098Z,939.38
2018-06-03T09:18:11.086Z,939.39
2018-06-03T09:19:11.078Z,939.39
2018-06-03T09:20:11.071Z,939.41
2018-06-03T09:21:11.109Z,939.41
2018-06-03T09:22:11.047Z,939.45
2018-06-03T09:23:11.038Z,939.49
2018-06-03T09:24:11.028Z,939.53
2018-06-03T09:25:11.069Z,939.56
2018-06-03T09:26:11.009Z,939.64
2018-06-03T09:27:11.003Z,939.62
2018-06-03T09:28:11.189Z,939.63
2018-06-03T09:29:10.981Z,939.69
2018-06-03T09:30:10.970Z,939.65
2018-06-03T09:31:10.961Z,939.80
2018-06-03T09:32:10.951Z,939.80
2018-06-03T09:33:10.942Z,939.80
2018-06-03T09:34:10.936Z,939.85
2018-06-03T09:35:10.921Z,939.84
2018-06-03T09:36:10.911Z,939.82
2018-06-03T09:37:10.902Z,939.86
2018-06-03T09:38:10.892Z,939.87
2018-06-03T09:39:10.882Z,939.89
2018-06-03T09:40:10.871Z,939.92
2018-06-03T09:41:10.862Z,939.90
2018-06-03T09:42:10.851Z,939.88
2018-06-03T09:43:10.842Z,939.91
2018-06-03T09:44:10.833Z,939.88
2018-06-03T09:45:10.823Z,939.87
2018-06-03T09:46:10.812Z,939.93
2018-06-03T09:47:10.804Z,939.90
2018-06-03T09:48:10.793Z,939.94
2018-06-03T09:49:10.784Z,939.99
2018-06-03T09:50:10.773Z,939.99
2018-06-03T09:51:10.767Z,940.02
2018-06-03T09:52:10.753Z,939.99
2018-06-03T09:53:10.776Z,940.00
2018-06-03T09:54:10.735Z,940.03
2018-06-03T09:55:10.723Z,940.04
2018-06-03T09:56:10.714Z,940.11
2018-06-03T09:57:10.702Z,940.06
2018-06-03T09:58:10.691Z,940.17
2018-06-03T09:59:10.683Z,940.21
2018-06-03T10:00:10.674Z,940.18
2018-06-03T10:01:10.664Z,940.21
2018-06-03T10:02:10.653Z,940.21
2018-06-03T10:03:10.646Z,940.21
2018-06-03T10:04:10.632Z,940.21
2018-06-03T10:05:10.623Z,940.25
2018-06-03T10:06:10.611Z,940.27
2018-06-03T10:07:10.602Z,940.23
2018-06-03T10:08:10.592Z,940.33
2018-06-03T10:09:10.583Z,940.32
2018-06-03T10:10:10.580Z,940.32
2018-06-03T10:11:10.561Z,940.28
2018-06-03T10:12:10.551Z,940.29
2018-06-03T10:13:10.542Z,940.33
2018-06-03T10:14:10.531Z,940.32
2018-06-03T10:15:10.521Z,940.36
2018-06-03T10:16:10.619Z,940.39
2018-06-03T10:17:10.500Z,940.38
2018-06-03T10:18:10.491Z,940.35
2018-06-03T10:19:10.480Z,940.37
2018-06-03T10:20:10.471Z,940.43
2018-06-03T10:21:10.465Z,940.41
2018-06-03T10:22:10.450Z,940.42
2018-06-03T10:23:10.438Z,940.42
2018-06-03T10:24:10.429Z,940.47
2018-06-03T10:25:10.419Z,940.49
2018-06-03T10:26:10.409Z,940.55
2018-06-03T10:27:10.399Z,940.57
2018-06-03T10:28:10.389Z,940.59
2018-06-03T10:29:10.385Z,940.62
2018-06-03T10:30:10.368Z,940.64
2018-06-03T10:31:10.357Z,940.70
2018-06-03T10:32:10.346Z,940.68
2018-06-03T10:33:10.337Z,940.73
2018-06-03T10:34:10.329Z,940.74
2018-06-03T10:35:10.316Z,940.74
2018-06-03T10:36:10.306Z,940.72
2018-06-03T10:37:10.296Z,940.74
2018-06-03T10:38:10.286Z,940.74
2018-06-03T10:39:10.276Z,940.75
2018-06-03T10:40:10.265Z,940.76
2018-06-03T10:41:10.255Z,940.77
2018-06-03T10:42:10.244Z,940.76
2018-06-03T10:43:10.234Z,940.83
2018-06-03T10:44:10.225Z,940.88
2018-06-03T10:45:10.214Z,940.87
2018-06-03T10:46:10.204Z,940.94
2018-06-03T10:47:10.192Z,940.97
2018-06-03T10:48:10.183Z,940.97
2018-06-03T10:49:10.173Z,940.98
2018-06-03T10:50:10.163Z,940.98
2018-06-03T10:51:10.153Z,940.99
2018-06-03T10:52:10.142Z,941.00
2018-06-03T10:53:10.132Z,940.96
2018-06-03T10:54:10.119Z,940.99
2018-06-03T10:55:10.110Z,940.95
2018-06-03T10:56:10.100Z,940.98
2018-06-03T10:57:10.091Z,941.02
2018-06-03T10:58:10.080Z,941.01
2018-06-03T10:59:10.069Z,941.04
2018-06-03T11:00:10.060Z,941.06
2018-06-03T11:01:10.048Z,941.04
2018-06-03T11:02:10.038Z,941.09
2018-06-03T11:03:10.027Z,941.19
2018-06-03T11:04:10.017Z,941.15
2018-06-03T11:05:10.007Z,941.17
2018-06-03T11:06:09.997Z,941.15
2018-06-03T11:07:09.987Z,941.22
2018-06-03T11:08:09.977Z,941.16
2018-06-03T11:09:09.966Z,941.22
2018-06-03T11:10:09.956Z,941.21
2018-06-03T11:11:09.947Z,941.26
2018-06-03T11:12:09.936Z,941.29
2018-06-03T11:13:09.927Z,941.28
2018-06-03T11:14:09.915Z,941.24
2018-06-03T11:15:09.905Z,941.27
2018-06-03T11:16:10.206Z,941.23
2018-06-03T11:17:09.885Z,941.29
2018-06-03T11:18:09.877Z,941.26
2018-06-03T11:19:09.864Z,941.23
2018-06-03T11:20:09.855Z,941.23
2018-06-03T11:21:09.845Z,941.21
2018-06-03T11:22:09.832Z,941.22
2018-06-03T11:23:09.824Z,941.24
2018-06-03T11:24:09.814Z,941.29
2018-06-03T11:25:09.810Z,941.28
2018-06-03T11:26:09.792Z,941.26
2018-06-03T11:27:09.791Z,941.29
2018-06-03T11:28:09.772Z,941.24
2018-06-03T11:29:09.763Z,941.26
2018-06-03T11:30:09.751Z,941.25
2018-06-03T11:31:09.741Z,941.28
2018-06-03T11:32:09.731Z,941.35
2018-06-03T11:33:09.720Z,941.37
2018-06-03T11:34:09.710Z,941.34
2018-06-03T11:35:09.699Z,941.34
2018-06-03T11:36:09.688Z,941.31
2018-06-03T11:37:09.678Z,941.34
2018-06-03T11:38:09.668Z,941.34
2018-06-03T11:39:09.657Z,941.35
2018-06-03T11:40:09.649Z,941.42
2018-06-03T11:41:09.638Z,941.44
2018-06-03T11:42:09.629Z,941.42
2018-06-03T11:43:09.618Z,941.50
2018-06-03T11:44:09.608Z,941.51
2018-06-03T11:45:09.597Z,941.41
2018-06-03T11:46:09.585Z,941.51
2018-06-03T11:47:09.575Z,941.42
2018-06-03T11:48:09.571Z,941.37
2018-06-03T11:49:09.557Z,941.41
2018-06-03T11:50:09.545Z,941.42
2018-06-03T11:51:09.535Z,941.43
2018-06-03T11:52:09.524Z,941.44
2018-06-03T11:53:09.514Z,941.45
2018-06-03T11:54:09.503Z,941.47
2018-06-03T11:55:09.493Z,941.39
2018-06-03T11:56:09.482Z,941.39
2018-06-03T11:57:09.473Z,941.36
2018-06-03T11:58:09.471Z,941.34
2018-06-03T11:59:09.481Z,941.36
2018-06-03T12:00:09.444Z,941.38
2018-06-03T12:01:09.432Z,941.40
2018-06-03T12:02:09.421Z,941.47
2018-06-03T12:03:09.412Z,941.54
2018-06-03T12:04:09.401Z,941.61
2018-06-03T12:05:09.392Z,941.63
2018-06-03T12:06:09.380Z,941.67
2018-06-03T12:07:09.371Z,941.71
2018-06-03T12:08:09.413Z,941.67
2018-06-03T12:09:09.355Z,941.71
2018-06-03T12:10:09.340Z,941.72
2018-06-03T12:11:09.331Z,941.73
2018-06-03T12:12:09.321Z,941.81
2018-06-03T12:13:09.312Z,941.90
2018-06-03T12:14:09.301Z,941.84
2018-06-03T12:15:09.292Z,941.86
2018-06-03T12:16:09.281Z,941.89
2018-06-03T12:17:09.271Z,941.85
2018-06-03T12:18:09.262Z,941.87
2018-06-03T12:19:09.250Z,941.85
2018-06-03T12:20:09.240Z,941.87
2018-06-03T12:21:09.235Z,941.86
2018-06-03T12:22:09.469Z,941.89
2018-06-03T12:23:09.209Z,941.90
2018-06-03T12:24:09.203Z,941.88
2018-06-03T12:25:09.190Z,941.90
2018-06-03T12:26:09.178Z,941.86
2018-06-03T12:27:09.168Z,941.85
2018-06-03T12:28:09.159Z,941.86